sensor_id;sensor_type;location;lat;lon;timestamp;pressure;altitude;pressure_sealevel;temperature;humidity
15308;BME280;7755;52.208;6.964;2023-03-04T00:00:00;102149.09;;;6.05;94.26
15308;BME280;7755;52.208;6.964;2023-03-04T00:04:10;102150.97;;;6.04;94.15
15308;BME280;7755;52.208;6.964;2023-03-04T00:08:13;102153.16;;;6.00;94.49
15308;BME280;7755;52.208;6.964;2023-03-04T00:12:16;102155.81;;;6.09;94.24
15308;BME280;7755;52.208;6.964;2023-03-04T00:16:21;102147.72;;;6.09;94.13
15308;BME280;7755;52.208;6.964;2023-03-04T00:20:24;102147.94;;;5.99;94.82
15308;BME280;7755;52.208;6.964;2023-03-04T00:24:27;102150.66;;;5.91;95.36
15308;BME280;7755;52.208;6.964;2023-03-04T00:28:30;102158.59;;;5.92;95.69
15308;BME280;7755;52.208;6.964;2023-03-04T00:32:35;102150.28;;;6.02;95.20
15308;BME280;7755;52.208;6.964;2023-03-04T00:36:39;102145.56;;;6.04;95.41
15308;BME280;7755;52.208;6.964;2023-03-04T00:40:45;102146.03;;;6.08;95.27
15308;BME280;7755;52.208;6.964;2023-03-04T00:44:48;102143.53;;;6.06;95.07
15308;BME280;7755;52.208;6.964;2023-03-04T00:48:53;102134.22;;;6.09;95.18
15308;BME280;7755;52.208;6.964;2023-03-04T00:52:56;102125.41;;;6.15;95.24
15308;BME280;7755;52.208;6.964;2023-03-04T00:56:59;102137.75;;;6.09;95.29
15308;BME280;7755;52.208;6.964;2023-03-04T01:01:03;102132.22;;;6.02;95.73
15308;BME280;7755;52.208;6.964;2023-03-04T01:05:08;102131.75;;;5.99;96.03
15308;BME280;7755;52.208;6.964;2023-03-04T01:09:12;102128.72;;;5.94;96.17
15308;BME280;7755;52.208;6.964;2023-03-04T01:13:15;102137.00;;;5.84;96.75
15308;BME280;7755;52.208;6.964;2023-03-04T01:17:18;102136.16;;;5.92;96.25
15308;BME280;7755;52.208;6.964;2023-03-04T01:21:23;102136.63;;;5.87;96.06
15308;BME280;7755;52.208;6.964;2023-03-04T01:25:26;102132.25;;;5.86;96.23
15308;BME280;7755;52.208;6.964;2023-03-04T01:29:30;102133.09;;;5.87;96.51
15308;BME280;7755;52.208;6.964;2023-03-04T01:33:33;102128.91;;;5.84;96.69
15308;BME280;7755;52.208;6.964;2023-03-04T01:37:38;102129.38;;;5.88;96.93
15308;BME280;7755;52.208;6.964;2023-03-04T01:41:41;102123.84;;;5.89;96.80
15308;BME280;7755;52.208;6.964;2023-03-04T01:45:45;102111.69;;;5.85;96.21
15308;BME280;7755;52.208;6.964;2023-03-04T01:49:53;102110.53;;;5.80;96.37
15308;BME280;7755;52.208;6.964;2023-03-04T01:53:59;102104.25;;;5.87;96.44
15308;BME280;7755;52.208;6.964;2023-03-04T01:58:05;102095.81;;;5.90;96.08
15308;BME280;7755;52.208;6.964;2023-03-04T02:02:13;102097.00;;;5.88;96.43
15308;BME280;7755;52.208;6.964;2023-03-04T02:06:16;102090.09;;;5.85;96.49
15308;BME280;7755;52.208;6.964;2023-03-04T02:10:20;102086.75;;;5.83;96.46
15308;BME280;7755;52.208;6.964;2023-03-04T02:14:24;102085.41;;;5.79;96.14
15308;BME280;7755;52.208;6.964;2023-03-04T02:18:27;102086.94;;;5.73;96.09
15308;BME280;7755;52.208;6.964;2023-03-04T02:22:31;102078.50;;;5.77;95.03
15308;BME280;7755;52.208;6.964;2023-03-04T02:26:37;102083.91;;;5.77;94.64
15308;BME280;7755;52.208;6.964;2023-03-04T02:30:42;102082.38;;;5.74;94.28
15308;BME280;7755;52.208;6.964;2023-03-04T02:34:46;102082.56;;;5.72;94.41
15308;BME280;7755;52.208;6.964;2023-03-04T02:38:52;102077.47;;;5.78;94.36
15308;BME280;7755;52.208;6.964;2023-03-04T02:42:59;102068.00;;;5.82;94.37
15308;BME280;7755;52.208;6.964;2023-03-04T02:47:03;102062.09;;;5.86;94.92
15308;BME280;7755;52.208;6.964;2023-03-04T02:51:06;102066.00;;;5.84;95.32
15308;BME280;7755;52.208;6.964;2023-03-04T02:55:10;102054.50;;;5.82;95.60
15308;BME280;7755;52.208;6.964;2023-03-04T02:59:14;102048.47;;;5.80;95.50
15308;BME280;7755;52.208;6.964;2023-03-04T03:03:17;102045.56;;;5.81;95.41
15308;BME280;7755;52.208;6.964;2023-03-04T03:07:21;102054.34;;;5.83;95.43
15308;BME280;7755;52.208;6.964;2023-03-04T03:11:24;102049.63;;;5.85;95.62
15308;BME280;7755;52.208;6.964;2023-03-04T03:15:29;102047.91;;;5.92;95.37
15308;BME280;7755;52.208;6.964;2023-03-04T03:19:32;102047.56;;;5.87;94.27
15308;BME280;7755;52.208;6.964;2023-03-04T03:23:38;102036.97;;;5.86;93.98
15308;BME280;7755;52.208;6.964;2023-03-04T03:27:41;102040.34;;;5.80;93.81
15308;BME280;7755;52.208;6.964;2023-03-04T03:31:47;102029.38;;;5.81;94.31
15308;BME280;7755;52.208;6.964;2023-03-04T03:35:52;102025.84;;;5.81;94.13
15308;BME280;7755;52.208;6.964;2023-03-04T03:39:55;102023.47;;;5.86;94.24
15308;BME280;7755;52.208;6.964;2023-03-04T03:43:58;102024.13;;;5.88;93.92
15308;BME280;7755;52.208;6.964;2023-03-04T03:48:04;102024.31;;;5.86;93.85
15308;BME280;7755;52.208;6.964;2023-03-04T03:52:07;102017.03;;;5.87;94.31
15308;BME280;7755;52.208;6.964;2023-03-04T03:56:10;102019.09;;;5.85;94.34
15308;BME280;7755;52.208;6.964;2023-03-04T04:00:14;102014.53;;;5.85;94.56
15308;BME280;7755;52.208;6.964;2023-03-04T04:04:19;102022.09;;;5.90;94.50
15308;BME280;7755;52.208;6.964;2023-03-04T04:08:22;102018.06;;;5.86;94.94
15308;BME280;7755;52.208;6.964;2023-03-04T04:12:25;102023.16;;;5.81;95.37
15308;BME280;7755;52.208;6.964;2023-03-04T04:16:29;102023.16;;;5.81;95.47
15308;BME280;7755;52.208;6.964;2023-03-04T04:20:35;102017.75;;;5.81;95.09
15308;BME280;7755;52.208;6.964;2023-03-04T04:24:38;102013.88;;;5.83;95.49
15308;BME280;7755;52.208;6.964;2023-03-04T04:28:41;102021.13;;;5.83;95.49
15308;BME280;7755;52.208;6.964;2023-03-04T04:32:44;102012.34;;;5.81;95.14
15308;BME280;7755;52.208;6.964;2023-03-04T04:36:49;102016.19;;;5.86;94.49
15308;BME280;7755;52.208;6.964;2023-03-04T04:40:52;102015.72;;;5.91;94.40
15308;BME280;7755;52.208;6.964;2023-03-04T04:44:55;102011.47;;;5.88;94.93
15308;BME280;7755;52.208;6.964;2023-03-04T04:48:59;102015.00;;;5.89;95.53
15308;BME280;7755;52.208;6.964;2023-03-04T04:53:03;102009.13;;;5.85;96.43
15308;BME280;7755;52.208;6.964;2023-03-04T04:57:07;102020.44;;;5.81;97.97
15308;BME280;7755;52.208;6.964;2023-03-04T05:01:11;102016.72;;;5.82;98.17
15308;BME280;7755;52.208;6.964;2023-03-04T05:05:14;102023.50;;;5.78;98.59
15308;BME280;7755;52.208;6.964;2023-03-04T05:09:18;102018.63;;;5.73;98.88
15308;BME280;7755;52.208;6.964;2023-03-04T05:13:23;102013.75;;;5.68;100.00
15308;BME280;7755;52.208;6.964;2023-03-04T05:17:26;102020.31;;;5.74;100.00
15308;BME280;7755;52.208;6.964;2023-03-04T05:21:29;102021.19;;;5.66;100.00
15308;BME280;7755;52.208;6.964;2023-03-04T05:25:34;102019.66;;;5.72;100.00
15308;BME280;7755;52.208;6.964;2023-03-04T05:29:37;102017.13;;;5.70;100.00
15308;BME280;7755;52.208;6.964;2023-03-04T05:33:40;102018.63;;;5.73;100.00
15308;BME280;7755;52.208;6.964;2023-03-04T05:37:43;102018.16;;;5.69;100.00
15308;BME280;7755;52.208;6.964;2023-03-04T05:41:47;102018.13;;;5.78;100.00
15308;BME280;7755;52.208;6.964;2023-03-04T05:45:50;102023.16;;;5.81;100.00
15308;BME280;7755;52.208;6.964;2023-03-04T05:49:53;102014.03;;;5.82;100.00
15308;BME280;7755;52.208;6.964;2023-03-04T05:53:58;102023.16;;;5.81;100.00
15308;BME280;7755;52.208;6.964;2023-03-04T05:58:03;102018.94;;;5.78;100.00
15308;BME280;7755;52.208;6.964;2023-03-04T06:02:06;102019.97;;;5.77;100.00
15308;BME280;7755;52.208;6.964;2023-03-04T06:06:09;102016.78;;;5.73;100.00
15308;BME280;7755;52.208;6.964;2023-03-04T06:10:15;102015.63;;;5.68;100.00
15308;BME280;7755;52.208;6.964;2023-03-04T06:14:20;102021.19;;;5.66;100.00
15308;BME280;7755;52.208;6.964;2023-03-04T06:18:24;102010.44;;;5.58;100.00
15308;BME280;7755;52.208;6.964;2023-03-04T06:22:27;102011.41;;;5.65;100.00
15308;BME280;7755;52.208;6.964;2023-03-04T06:26:30;102025.75;;;5.66;100.00
15308;BME280;7755;52.208;6.964;2023-03-04T06:30:34;102028.25;;;5.67;100.00
15308;BME280;7755;52.208;6.964;2023-03-04T06:34:37;102027.94;;;5.70;100.00
15308;BME280;7755;52.208;6.964;2023-03-04T06:38:40;102027.09;;;5.70;100.00
15308;BME280;7755;52.208;6.964;2023-03-04T06:42:43;102038.41;;;5.65;100.00
15308;BME280;7755;52.208;6.964;2023-03-04T06:46:48;102036.22;;;5.61;100.00
15308;BME280;7755;52.208;6.964;2023-03-04T06:50:51;102033.69;;;5.59;100.00
15308;BME280;7755;52.208;6.964;2023-03-04T06:54:54;102037.19;;;5.68;100.00
15308;BME280;7755;52.208;6.964;2023-03-04T06:58:57;102038.59;;;5.64;100.00
15308;BME280;7755;52.208;6.964;2023-03-04T07:03:01;102038.44;;;5.57;100.00
15308;BME280;7755;52.208;6.964;2023-03-04T07:07:05;102032.91;;;5.51;100.00
15308;BME280;7755;52.208;6.964;2023-03-04T07:11:08;102030.72;;;5.46;100.00
15308;BME280;7755;52.208;6.964;2023-03-04T07:15:11;102029.38;;;5.50;100.00
15308;BME280;7755;52.208;6.964;2023-03-04T07:19:15;102034.75;;;5.50;100.00
15308;BME280;7755;52.208;6.964;2023-03-04T07:23:18;102039.19;;;5.43;100.00
15308;BME280;7755;52.208;6.964;2023-03-04T07:27:21;102050.09;;;5.50;100.00
15308;BME280;7755;52.208;6.964;2023-03-04T07:31:27;102054.81;;;5.47;100.00
15308;BME280;7755;52.208;6.964;2023-03-04T07:35:32;102049.28;;;5.49;100.00
15308;BME280;7755;52.208;6.964;2023-03-04T07:39:35;102047.38;;;5.58;100.00
15308;BME280;7755;52.208;6.964;2023-03-04T07:43:38;102043.66;;;5.59;100.00
15308;BME280;7755;52.208;6.964;2023-03-04T07:47:42;102041.63;;;5.61;100.00
15308;BME280;7755;52.208;6.964;2023-03-04T07:51:47;102046.31;;;5.67;100.00
15308;BME280;7755;52.208;6.964;2023-03-04T07:55:50;102038.53;;;5.72;100.00
15308;BME280;7755;52.208;6.964;2023-03-04T07:59:53;102045.94;;;5.78;100.00
15308;BME280;7755;52.208;6.964;2023-03-04T08:03:57;102038.88;;;5.77;100.00
15308;BME280;7755;52.208;6.964;2023-03-04T08:08:02;102038.53;;;5.72;100.00
15308;BME280;7755;52.208;6.964;2023-03-04T08:12:05;102042.59;;;5.76;100.00
15308;BME280;7755;52.208;6.964;2023-03-04T08:16:11;102042.03;;;5.81;100.00
15308;BME280;7755;52.208;6.964;2023-03-04T08:20:14;102048.97;;;5.83;100.00
15308;BME280;7755;52.208;6.964;2023-03-04T08:24:18;102046.53;;;5.88;100.00
15308;BME280;7755;52.208;6.964;2023-03-04T08:28:21;102038.28;;;5.98;100.00
15308;BME280;7755;52.208;6.964;2023-03-04T08:32:24;102045.66;;;6.04;100.00
15308;BME280;7755;52.208;6.964;2023-03-04T08:36:28;102046.00;;;6.01;100.00
15308;BME280;7755;52.208;6.964;2023-03-04T08:40:32;102045.28;;;6.07;100.00
15308;BME280;7755;52.208;6.964;2023-03-04T08:44:35;102051.53;;;6.08;100.00
15308;BME280;7755;52.208;6.964;2023-03-04T08:48:38;102054.75;;;6.11;100.00
15308;BME280;7755;52.208;6.964;2023-03-04T08:52:41;102051.31;;;6.17;100.00
15308;BME280;7755;52.208;6.964;2023-03-04T08:56:46;102053.13;;;6.25;100.00
15308;BME280;7755;52.208;6.964;2023-03-04T09:00:49;102048.69;;;6.32;100.00
15308;BME280;7755;52.208;6.964;2023-03-04T09:04:53;102051.16;;;6.42;100.00
15308;BME280;7755;52.208;6.964;2023-03-04T09:08:56;102045.78;;;6.56;100.00
15308;BME280;7755;52.208;6.964;2023-03-04T09:13:01;102049.09;;;6.67;100.00
15308;BME280;7755;52.208;6.964;2023-03-04T09:17:04;102047.88;;;6.69;100.00
15308;BME280;7755;52.208;6.964;2023-03-04T09:21:08;102044.34;;;6.69;100.00
15308;BME280;7755;52.208;6.964;2023-03-04T09:25:13;102038.28;;;6.67;100.00
15308;BME280;7755;52.208;6.964;2023-03-04T09:29:19;102042.03;;;6.66;100.00
15308;BME280;7755;52.208;6.964;2023-03-04T09:33:22;102036.53;;;6.74;100.00
15308;BME280;7755;52.208;6.964;2023-03-04T09:37:25;102039.06;;;6.75;100.00
15308;BME280;7755;52.208;6.964;2023-03-04T09:41:34;102035.63;;;6.81;100.00
15308;BME280;7755;52.208;6.964;2023-03-04T09:45:42;102031.25;;;6.80;100.00
15308;BME280;7755;52.208;6.964;2023-03-04T09:49:53;102026.47;;;6.82;100.00
15308;BME280;7755;52.208;6.964;2023-03-04T09:54:05;102040.38;;;6.79;100.00
15308;BME280;7755;52.208;6.964;2023-03-04T09:58:24;102040.00;;;6.82;100.00
15308;BME280;7755;52.208;6.964;2023-03-04T10:02:38;102045.41;;;6.82;100.00
15308;BME280;7755;52.208;6.964;2023-03-04T10:06:46;102027.81;;;6.87;100.00
15308;BME280;7755;52.208;6.964;2023-03-04T10:10:55;102034.25;;;7.00;100.00
15308;BME280;7755;52.208;6.964;2023-03-04T10:15:03;102030.25;;;7.11;100.00
15308;BME280;7755;52.208;6.964;2023-03-04T10:19:33;102026.81;;;7.17;100.00
15308;BME280;7755;52.208;6.964;2023-03-04T10:23:39;102029.25;;;7.12;100.00
15308;BME280;7755;52.208;6.964;2023-03-04T10:27:43;102021.97;;;7.13;100.00
15308;BME280;7755;52.208;6.964;2023-03-04T10:31:50;102031.38;;;7.17;100.00
15308;BME280;7755;52.208;6.964;2023-03-04T10:36:02;102025.53;;;7.28;100.00
15308;BME280;7755;52.208;6.964;2023-03-04T10:40:17;102014.59;;;7.51;100.00
15308;BME280;7755;52.208;6.964;2023-03-04T10:44:22;102019.53;;;7.62;100.00
15308;BME280;7755;52.208;6.964;2023-03-04T10:48:27;102010.38;;;7.63;100.00
15308;BME280;7755;52.208;6.964;2023-03-04T10:52:34;102012.81;;;7.58;100.00
15308;BME280;7755;52.208;6.964;2023-03-04T10:56:41;102009.09;;;7.44;100.00
15308;BME280;7755;52.208;6.964;2023-03-04T11:00:58;102030.28;;;7.41;100.00
15308;BME280;7755;52.208;6.964;2023-03-04T11:05:10;102022.06;;;7.34;100.00
15308;BME280;7755;52.208;6.964;2023-03-04T11:09:22;102005.28;;;7.38;100.00
15308;BME280;7755;52.208;6.964;2023-03-04T11:13:26;102002.09;;;7.50;100.00
15308;BME280;7755;52.208;6.964;2023-03-04T11:17:40;102007.66;;;7.63;100.00
15308;BME280;7755;52.208;6.964;2023-03-04T11:21:44;102008.34;;;7.50;100.00
15308;BME280;7755;52.208;6.964;2023-03-04T11:25:55;102002.66;;;7.45;100.00
15308;BME280;7755;52.208;6.964;2023-03-04T11:30:15;102008.34;;;7.50;100.00
15308;BME280;7755;52.208;6.964;2023-03-04T11:34:31;102009.66;;;7.54;100.00
15308;BME280;7755;52.208;6.964;2023-03-04T11:38:38;102000.97;;;7.44;100.00
15308;BME280;7755;52.208;6.964;2023-03-04T11:42:48;101997.09;;;7.32;100.00
15308;BME280;7755;52.208;6.964;2023-03-04T11:47:04;102018.25;;;7.14;100.00
15308;BME280;7755;52.208;6.964;2023-03-04T11:51:12;102005.47;;;7.07;100.00
15308;BME280;7755;52.208;6.964;2023-03-04T11:55:30;101998.44;;;6.83;100.00
15308;BME280;7755;52.208;6.964;2023-03-04T11:59:51;101983.81;;;6.93;100.00
15308;BME280;7755;52.208;6.964;2023-03-04T12:04:10;101989.13;;;6.86;100.00
15308;BME280;7755;52.208;6.964;2023-03-04T12:08:38;101988.38;;;6.92;100.00
15308;BME280;7755;52.208;6.964;2023-03-04T12:13:05;101982.50;;;7.03;100.00
15308;BME280;7755;52.208;6.964;2023-03-04T12:17:32;101983.91;;;7.14;100.00
15308;BME280;7755;52.208;6.964;2023-03-04T12:21:55;101964.53;;;7.25;100.00
15308;BME280;7755;52.208;6.964;2023-03-04T12:26:06;101960.13;;;7.24;100.00
15308;BME280;7755;52.208;6.964;2023-03-04T12:30:23;101963.19;;;7.36;100.00
15308;BME280;7755;52.208;6.964;2023-03-04T12:34:41;101948.00;;;7.35;100.00
15308;BME280;7755;52.208;6.964;2023-03-04T12:38:58;101950.75;;;7.56;100.00
15308;BME280;7755;52.208;6.964;2023-03-04T12:43:12;101949.88;;;7.71;100.00
15308;BME280;7755;52.208;6.964;2023-03-04T12:47:27;101945.97;;;7.73;100.00
15308;BME280;7755;52.208;6.964;2023-03-04T12:51:39;101946.13;;;7.72;100.00
15308;BME280;7755;52.208;6.964;2023-03-04T12:55:46;101944.22;;;7.65;100.00
15308;BME280;7755;52.208;6.964;2023-03-04T12:59:55;101945.72;;;7.53;100.00
15308;BME280;7755;52.208;6.964;2023-03-04T13:04:02;101944.50;;;7.56;100.00
15308;BME280;7755;52.208;6.964;2023-03-04T13:08:19;101934.22;;;7.66;100.00
15308;BME280;7755;52.208;6.964;2023-03-04T13:12:25;101931.31;;;7.68;100.00
15308;BME280;7755;52.208;6.964;2023-03-04T13:16:30;101921.41;;;7.75;100.00
15308;BME280;7755;52.208;6.964;2023-03-04T13:20:37;101917.94;;;7.81;100.00
15308;BME280;7755;52.208;6.964;2023-03-04T13:24:46;101914.63;;;7.85;99.00
15308;BME280;7755;52.208;6.964;2023-03-04T13:28:54;101903.41;;;8.10;99.13
15308;BME280;7755;52.208;6.964;2023-03-04T13:33:43;101903.31;;;8.25;94.72
15308;BME280;7755;52.208;6.964;2023-03-04T13:37:57;101896.50;;;8.29;95.27
15308;BME280;7755;52.208;6.964;2023-03-04T13:42:03;101889.72;;;8.18;92.34
15308;BME280;7755;52.208;6.964;2023-03-04T13:46:30;101901.69;;;8.02;94.56
15308;BME280;7755;52.208;6.964;2023-03-04T13:50:45;101903.34;;;8.03;94.74
15308;BME280;7755;52.208;6.964;2023-03-04T13:54:49;101886.72;;;7.85;93.70
15308;BME280;7755;52.208;6.964;2023-03-04T13:59:03;101895.03;;;7.83;94.11
15308;BME280;7755;52.208;6.964;2023-03-04T14:03:13;101889.19;;;7.80;93.79
15308;BME280;7755;52.208;6.964;2023-03-04T14:07:24;101880.88;;;7.81;94.61
15308;BME280;7755;52.208;6.964;2023-03-04T14:11:32;101883.94;;;7.78;93.92
15308;BME280;7755;52.208;6.964;2023-03-04T14:15:38;101881.44;;;7.77;93.92
15308;BME280;7755;52.208;6.964;2023-03-04T14:19:43;101885.56;;;7.73;92.84
15308;BME280;7755;52.208;6.964;2023-03-04T14:23:58;101884.19;;;7.62;93.40
15308;BME280;7755;52.208;6.964;2023-03-04T14:28:05;101879.06;;;7.67;92.65
15308;BME280;7755;52.208;6.964;2023-03-04T14:32:13;101874.28;;;7.69;91.69
15308;BME280;7755;52.208;6.964;2023-03-04T14:36:18;101872.41;;;7.70;91.19
15308;BME280;7755;52.208;6.964;2023-03-04T14:40:25;101872.88;;;7.73;90.95
15308;BME280;7755;52.208;6.964;2023-03-04T14:44:32;101861.91;;;7.81;91.17
15308;BME280;7755;52.208;6.964;2023-03-04T14:48:46;101861.28;;;7.79;90.16
15308;BME280;7755;52.208;6.964;2023-03-04T14:53:14;101856.16;;;7.70;89.97
15308;BME280;7755;52.208;6.964;2023-03-04T14:57:25;101849.34;;;7.74;90.61
15308;BME280;7755;52.208;6.964;2023-03-04T15:01:33;101864.09;;;7.71;90.21
15308;BME280;7755;52.208;6.964;2023-03-04T15:05:38;101857.72;;;7.57;90.39
15308;BME280;7755;52.208;6.964;2023-03-04T15:09:41;101866.16;;;7.48;93.03
15308;BME280;7755;52.208;6.964;2023-03-04T15:13:52;101853.53;;;7.55;94.74
15308;BME280;7755;52.208;6.964;2023-03-04T15:17:59;101863.03;;;7.51;93.95
15308;BME280;7755;52.208;6.964;2023-03-04T15:22:05;101862.75;;;7.60;93.71
15308;BME280;7755;52.208;6.964;2023-03-04T15:26:23;101857.63;;;7.51;92.36
15308;BME280;7755;52.208;6.964;2023-03-04T15:30:38;101861.31;;;7.43;91.78
15308;BME280;7755;52.208;6.964;2023-03-04T15:34:48;101857.31;;;7.39;90.61
15308;BME280;7755;52.208;6.964;2023-03-04T15:38:53;101860.25;;;7.23;91.68
15308;BME280;7755;52.208;6.964;2023-03-04T15:42:57;101855.13;;;7.13;93.79
15308;BME280;7755;52.208;6.964;2023-03-04T15:47:02;101851.63;;;6.98;92.50
15308;BME280;7755;52.208;6.964;2023-03-04T15:51:11;101846.31;;;6.90;92.00
15308;BME280;7755;52.208;6.964;2023-03-04T15:55:20;101843.50;;;6.83;92.26
15308;BME280;7755;52.208;6.964;2023-03-04T15:59:23;101847.44;;;6.80;92.45
15308;BME280;7755;52.208;6.964;2023-03-04T16:03:27;101838.50;;;6.80;93.31
15308;BME280;7755;52.208;6.964;2023-03-04T16:07:30;101844.53;;;6.82;93.58
15308;BME280;7755;52.208;6.964;2023-03-04T16:11:40;101842.56;;;6.91;93.94
15308;BME280;7755;52.208;6.964;2023-03-04T16:15:55;101840.25;;;6.88;93.15
15308;BME280;7755;52.208;6.964;2023-03-04T16:20:03;101838.03;;;6.91;93.99
15308;BME280;7755;52.208;6.964;2023-03-04T16:24:11;101849.19;;;7.03;93.68
15308;BME280;7755;52.208;6.964;2023-03-04T16:28:30;101848.72;;;6.99;92.93
15308;BME280;7755;52.208;6.964;2023-03-04T16:32:33;101846.22;;;6.98;92.48
15308;BME280;7755;52.208;6.964;2023-03-04T16:36:38;101851.06;;;6.88;91.22
15308;BME280;7755;52.208;6.964;2023-03-04T16:40:42;101845.13;;;6.77;91.13
15308;BME280;7755;52.208;6.964;2023-03-04T16:44:47;101845.69;;;6.73;90.58
15308;BME280;7755;52.208;6.964;2023-03-04T16:48:50;101856.00;;;6.69;90.67
15308;BME280;7755;52.208;6.964;2023-03-04T16:52:55;101853.59;;;6.60;89.65
15308;BME280;7755;52.208;6.964;2023-03-04T16:56:59;101856.50;;;6.58;89.09
15308;BME280;7755;52.208;6.964;2023-03-04T17:01:04;101861.69;;;6.45;88.93
15308;BME280;7755;52.208;6.964;2023-03-04T17:05:13;101867.94;;;6.45;90.73
15308;BME280;7755;52.208;6.964;2023-03-04T17:09:19;101861.69;;;6.30;93.56
15308;BME280;7755;52.208;6.964;2023-03-04T17:13:32;101871.34;;;6.24;95.91
15308;BME280;7755;52.208;6.964;2023-03-04T17:17:49;101860.56;;;6.24;95.11
15308;BME280;7755;52.208;6.964;2023-03-04T17:22:09;101863.59;;;6.21;94.76
15308;BME280;7755;52.208;6.964;2023-03-04T17:26:22;101857.84;;;6.24;94.70
15308;BME280;7755;52.208;6.964;2023-03-04T17:30:26;101863.59;;;6.21;93.80
15308;BME280;7755;52.208;6.964;2023-03-04T17:34:37;101867.88;;;6.16;93.95
15308;BME280;7755;52.208;6.964;2023-03-04T17:38:43;101863.38;;;6.08;94.55
15308;BME280;7755;52.208;6.964;2023-03-04T17:43:00;101863.88;;;6.12;94.70
15308;BME280;7755;52.208;6.964;2023-03-04T17:47:15;101863.31;;;6.16;95.01
15308;BME280;7755;52.208;6.964;2023-03-04T17:51:20;101863.50;;;6.15;95.06
15308;BME280;7755;52.208;6.964;2023-03-04T17:55:31;101869.09;;;6.13;95.51
15308;BME280;7755;52.208;6.964;2023-03-04T17:59:34;101862.00;;;6.12;96.06
15308;BME280;7755;52.208;6.964;2023-03-04T18:03:42;101870.84;;;6.06;96.14
15308;BME280;7755;52.208;6.964;2023-03-04T18:08:00;101869.63;;;6.09;95.95
15308;BME280;7755;52.208;6.964;2023-03-04T18:12:14;101866.47;;;6.05;96.33
15308;BME280;7755;52.208;6.964;2023-03-04T18:16:31;101865.13;;;6.01;96.50
15308;BME280;7755;52.208;6.964;2023-03-04T18:20:43;101868.22;;;5.98;96.37
15308;BME280;7755;52.208;6.964;2023-03-04T18:25:05;101872.59;;;5.99;96.70
15308;BME280;7755;52.208;6.964;2023-03-04T18:29:13;101870.53;;;6.01;97.48
15308;BME280;7755;52.208;6.964;2023-03-04T18:33:16;101884.94;;;5.93;98.19
15308;BME280;7755;52.208;6.964;2023-03-04T18:37:19;101900.34;;;5.85;99.09
15308;BME280;7755;52.208;6.964;2023-03-04T18:41:24;101893.59;;;5.81;100.00
15308;BME280;7755;52.208;6.964;2023-03-04T18:45:29;101897.47;;;5.63;100.00
15308;BME280;7755;52.208;6.964;2023-03-04T18:49:32;101893.28;;;5.53;100.00
15308;BME280;7755;52.208;6.964;2023-03-04T18:53:36;101892.84;;;5.41;100.00
15308;BME280;7755;52.208;6.964;2023-03-04T18:57:46;101890.41;;;5.31;100.00
15308;BME280;7755;52.208;6.964;2023-03-04T19:02:12;101895.50;;;5.18;100.00
15308;BME280;7755;52.208;6.964;2023-03-04T19:06:33;101892.50;;;5.13;100.00
15308;BME280;7755;52.208;6.964;2023-03-04T19:10:46;101900.25;;;5.16;100.00
15308;BME280;7755;52.208;6.964;2023-03-04T19:15:05;101894.16;;;5.14;100.00
15308;BME280;7755;52.208;6.964;2023-03-04T19:19:14;101887.56;;;5.25;100.00
15308;BME280;7755;52.208;6.964;2023-03-04T19:23:17;101886.06;;;5.22;100.00
15308;BME280;7755;52.208;6.964;2023-03-04T19:27:21;101890.78;;;5.20;99.43
15308;BME280;7755;52.208;6.964;2023-03-04T19:31:26;101880.53;;;5.15;99.51
15308;BME280;7755;52.208;6.964;2023-03-04T19:35:29;101878.84;;;5.14;99.70
15308;BME280;7755;52.208;6.964;2023-03-04T19:39:37;101883.53;;;5.20;99.10
15308;BME280;7755;52.208;6.964;2023-03-04T19:43:40;101879.09;;;5.28;99.00
15308;BME280;7755;52.208;6.964;2023-03-04T19:47:46;101874.25;;;5.23;98.72
15308;BME280;7755;52.208;6.964;2023-03-04T19:51:51;101874.25;;;5.23;98.53
15308;BME280;7755;52.208;6.964;2023-03-04T19:56:09;101875.75;;;5.26;98.52
15308;BME280;7755;52.208;6.964;2023-03-04T20:00:26;101878.13;;;5.29;98.54
15308;BME280;7755;52.208;6.964;2023-03-04T20:04:43;101885.84;;;5.32;98.92
15308;BME280;7755;52.208;6.964;2023-03-04T20:09:01;101875.06;;;5.32;98.91
15308;BME280;7755;52.208;6.964;2023-03-04T20:13:09;101876.06;;;5.31;99.31
15308;BME280;7755;52.208;6.964;2023-03-04T20:17:21;101875.94;;;5.24;99.19
15308;BME280;7755;52.208;6.964;2023-03-04T20:21:41;101882.22;;;5.16;99.48
15308;BME280;7755;52.208;6.964;2023-03-04T20:26:07;101864.19;;;5.17;99.80
15308;BME280;7755;52.208;6.964;2023-03-04T20:30:36;101875.63;;;5.19;99.25
15308;BME280;7755;52.208;6.964;2023-03-04T20:34:54;101868.72;;;5.16;99.17
15308;BME280;7755;52.208;6.964;2023-03-04T20:39:09;101874.81;;;5.10;98.75
15308;BME280;7755;52.208;6.964;2023-03-04T20:43:30;101880.88;;;5.12;98.72
15308;BME280;7755;52.208;6.964;2023-03-04T20:47:42;101879.00;;;5.13;98.77
15308;BME280;7755;52.208;6.964;2023-03-04T20:51:56;101877.84;;;5.07;98.42
15308;BME280;7755;52.208;6.964;2023-03-04T20:56:12;101872.47;;;5.07;98.48
15308;BME280;7755;52.208;6.964;2023-03-04T21:00:18;101879.84;;;5.13;99.06
15308;BME280;7755;52.208;6.964;2023-03-04T21:04:22;101878.50;;;5.17;99.56
15308;BME280;7755;52.208;6.964;2023-03-04T21:08:41;101870.84;;;4.98;100.00
15308;BME280;7755;52.208;6.964;2023-03-04T21:13:05;101869.06;;;4.82;100.00
15308;BME280;7755;52.208;6.964;2023-03-04T21:17:22;101872.03;;;4.87;100.00
15308;BME280;7755;52.208;6.964;2023-03-04T21:21:34;101866.31;;;4.90;100.00
15308;BME280;7755;52.208;6.964;2023-03-04T21:25:47;101870.03;;;4.89;100.00
15308;BME280;7755;52.208;6.964;2023-03-04T21:29:51;101863.25;;;4.93;100.00
15308;BME280;7755;52.208;6.964;2023-03-04T21:34:13;101856.56;;;4.89;100.00
15308;BME280;7755;52.208;6.964;2023-03-04T21:38:18;101856.06;;;4.86;100.00
15308;BME280;7755;52.208;6.964;2023-03-04T21:42:23;101850.06;;;4.76;100.00
15308;BME280;7755;52.208;6.964;2023-03-04T21:46:39;101851.53;;;4.78;100.00
15308;BME280;7755;52.208;6.964;2023-03-04T21:50:59;101851.22;;;4.81;100.00
15308;BME280;7755;52.208;6.964;2023-03-04T21:55:03;101840.78;;;4.78;100.00
15308;BME280;7755;52.208;6.964;2023-03-04T21:59:10;101849.34;;;4.82;100.00